sensor_id;sensor_type;location;lat;lon;timestamp;pressure;altitude;pressure_sealevel;temperature;humidity
4617;BME280;2321;42.704;23.384;2023-02-13T00:00:24;97178.50;;;0.50;100.00
4617;BME280;2321;42.704;23.384;2023-02-13T00:02:51;97188.41;;;0.61;100.00
4617;BME280;2321;42.704;23.384;2023-02-13T00:05:18;97188.31;;;0.63;100.00
4617;BME280;2321;42.704;23.384;2023-02-13T00:07:52;97199.16;;;0.73;100.00
4617;BME280;2321;42.704;23.384;2023-02-13T00:10:19;97192.31;;;0.70;100.00
4617;BME280;2321;42.704;23.384;2023-02-13T00:12:46;97198.63;;;0.66;100.00
4617;BME280;2321;42.704;23.384;2023-02-13T00:15:14;97194.41;;;0.63;100.00
4617;BME280;2321;42.704;23.384;2023-02-13T00:17:41;97199.72;;;0.62;100.00
4617;BME280;2321;42.704;23.384;2023-02-13T00:20:09;97205.66;;;0.65;100.00
4617;BME280;2321;42.704;23.384;2023-02-13T00:22:37;97200.50;;;0.64;100.00
4617;BME280;2321;42.704;23.384;2023-02-13T00:25:05;97201.78;;;0.73;100.00
4617;BME280;2321;42.704;23.384;2023-02-13T00:27:33;97206.22;;;0.71;100.00
4617;BME280;2321;42.704;23.384;2023-02-13T00:30:00;97205.25;;;0.73;100.00
4617;BME280;2321;42.704;23.384;2023-02-13T00:32:28;97204.47;;;0.71;100.00
4617;BME280;2321;42.704;23.384;2023-02-13T00:34:56;97170.75;;;0.49;100.00
4617;BME280;2321;42.704;23.384;2023-02-13T00:37:23;97210.88;;;0.65;100.00
4617;BME280;2321;42.704;23.384;2023-02-13T00:39:50;97198.91;;;0.61;100.00
4617;BME280;2321;42.704;23.384;2023-02-13T00:42:17;97203.78;;;0.51;100.00
4617;BME280;2321;42.704;23.384;2023-02-13T00:44:44;97212.59;;;0.50;100.00
4617;BME280;2321;42.704;23.384;2023-02-13T00:47:11;97214.63;;;0.45;100.00
4617;BME280;2321;42.704;23.384;2023-02-13T00:49:40;97223.72;;;0.38;100.00
4617;BME280;2321;42.704;23.384;2023-02-13T00:52:07;97222.88;;;0.37;100.00
4617;BME280;2321;42.704;23.384;2023-02-13T00:54:34;97219.06;;;0.27;100.00
4617;BME280;2321;42.704;23.384;2023-02-13T00:57:01;97223.94;;;0.17;100.00
4617;BME280;2321;42.704;23.384;2023-02-13T00:59:28;97229.81;;;0.04;100.00
4617;BME280;2321;42.704;23.384;2023-02-13T01:01:55;97229.75;;;0.06;100.00
4617;BME280;2321;42.704;23.384;2023-02-13T01:04:22;97225.16;;;-0.07;100.00
4617;BME280;2321;42.704;23.384;2023-02-13T01:06:50;97222.56;;;-0.25;100.00
4617;BME280;2321;42.704;23.384;2023-02-13T01:09:17;97229.25;;;-0.37;100.00
4617;BME280;2321;42.704;23.384;2023-02-13T01:11:44;97222.66;;;-0.44;100.00
4617;BME280;2321;42.704;23.384;2023-02-13T01:14:11;97220.56;;;-0.55;100.00
4617;BME280;2321;42.704;23.384;2023-02-13T01:16:38;97225.66;;;-0.52;100.00
4617;BME280;2321;42.704;23.384;2023-02-13T01:19:04;97221.41;;;-0.55;100.00
4617;BME280;2321;42.704;23.384;2023-02-13T01:21:31;97230.81;;;-0.50;100.00
4617;BME280;2321;42.704;23.384;2023-02-13T01:24:02;97235.50;;;-0.57;100.00
4617;BME280;2321;42.704;23.384;2023-02-13T01:26:29;97233.78;;;-0.58;100.00
4617;BME280;2321;42.704;23.384;2023-02-13T01:28:56;97231.66;;;-0.50;100.00
4617;BME280;2321;42.704;23.384;2023-02-13T01:31:23;97236.25;;;-0.55;100.00
4617;BME280;2321;42.704;23.384;2023-02-13T01:33:50;97229.91;;;-0.49;100.00
4617;BME280;2321;42.704;23.384;2023-02-13T01:36:17;97239.28;;;-0.45;100.00
4617;BME280;2321;42.704;23.384;2023-02-13T01:38:44;97239.22;;;-0.43;100.00
4617;BME280;2321;42.704;23.384;2023-02-13T01:41:12;97229.75;;;-0.46;100.00
4617;BME280;2321;42.704;23.384;2023-02-13T01:43:48;97239.66;;;-0.53;100.00
4617;BME280;2321;42.704;23.384;2023-02-13T01:46:20;97241.44;;;-0.53;100.00
4617;BME280;2321;42.704;23.384;2023-02-13T01:48:48;97219.19;;;-0.62;100.00
4617;BME280;2321;42.704;23.384;2023-02-13T01:51:21;97245.66;;;-0.51;100.00
4617;BME280;2321;42.704;23.384;2023-02-13T01:53:53;97242.91;;;-0.48;100.00
4617;BME280;2321;42.704;23.384;2023-02-13T01:56:26;97248.88;;;-0.46;100.00
4617;BME280;2321;42.704;23.384;2023-02-13T01:58:58;97248.13;;;-0.48;100.00
4617;BME280;2321;42.704;23.384;2023-02-13T02:01:26;97247.13;;;-0.45;100.00
4617;BME280;2321;42.704;23.384;2023-02-13T02:03:56;97223.81;;;-0.50;100.00
4617;BME280;2321;42.704;23.384;2023-02-13T02:06:27;97246.81;;;-0.39;100.00
4617;BME280;2321;42.704;23.384;2023-02-13T02:09:00;97240.88;;;-0.42;100.00
4617;BME280;2321;42.704;23.384;2023-02-13T02:11:33;97236.34;;;-0.39;100.00
4617;BME280;2321;42.704;23.384;2023-02-13T02:14:01;97239.56;;;-0.51;100.00
4617;BME280;2321;42.704;23.384;2023-02-13T02:16:30;97233.88;;;-0.60;100.00
4617;BME280;2321;42.704;23.384;2023-02-13T02:19:00;97240.44;;;-0.51;100.00
4617;BME280;2321;42.704;23.384;2023-02-13T02:22:09;97247.66;;;-0.56;100.00
4617;BME280;2321;42.704;23.384;2023-02-13T02:25:03;97236.34;;;-0.57;100.00
4617;BME280;2321;42.704;23.384;2023-02-13T02:31:15;97220.03;;;-0.62;100.00
4617;BME280;2321;42.704;23.384;2023-02-13T02:33:55;97240.28;;;-0.66;100.00
4617;BME280;2321;42.704;23.384;2023-02-13T02:36:37;97244.75;;;-0.68;100.00
4617;BME280;2321;42.704;23.384;2023-02-13T02:39:13;97248.47;;;-0.73;100.00
4617;BME280;2321;42.704;23.384;2023-02-13T02:41:51;97258.56;;;-0.83;100.00
4617;BME280;2321;42.704;23.384;2023-02-13T02:44:31;97257.72;;;-0.84;100.00
4617;BME280;2321;42.704;23.384;2023-02-13T02:47:07;97273.56;;;-0.87;100.00
4617;BME280;2321;42.704;23.384;2023-02-13T02:50:03;97267.44;;;-1.05;100.00
4617;BME280;2321;42.704;23.384;2023-02-13T02:52:47;97275.78;;;-1.16;100.00
4617;BME280;2321;42.704;23.384;2023-02-13T02:55:30;97284.06;;;-1.26;100.00
4617;BME280;2321;42.704;23.384;2023-02-13T02:58:02;97287.63;;;-1.28;100.00
4617;BME280;2321;42.704;23.384;2023-02-13T03:00:49;97279.94;;;-1.32;100.00
4617;BME280;2321;42.704;23.384;2023-02-13T03:03:35;97277.41;;;-1.14;100.00
4617;BME280;2321;42.704;23.384;2023-02-13T03:06:39;97277.84;;;-1.23;100.00
4617;BME280;2321;42.704;23.384;2023-02-13T03:09:11;97273.28;;;-1.19;100.00
4617;BME280;2321;42.704;23.384;2023-02-13T03:11:57;97271.19;;;-1.11;100.00
4617;BME280;2321;42.704;23.384;2023-02-13T03:14:42;97270.19;;;-1.08;100.00
4617;BME280;2321;42.704;23.384;2023-02-13T03:17:11;97273.56;;;-1.06;100.00
4617;BME280;2321;42.704;23.384;2023-02-13T03:20:05;97267.91;;;-1.16;100.00
4617;BME280;2321;42.704;23.384;2023-02-13T03:23:06;97270.91;;;-1.24;100.00
4617;BME280;2321;42.704;23.384;2023-02-13T03:25:52;97266.97;;;-1.33;100.00
4617;BME280;2321;42.704;23.384;2023-02-13T03:28:27;97277.91;;;-1.25;100.00
4617;BME280;2321;42.704;23.384;2023-02-13T03:31:21;97282.78;;;-1.36;100.00
4617;BME280;2321;42.704;23.384;2023-02-13T03:33:57;97275.84;;;-1.37;100.00
4617;BME280;2321;42.704;23.384;2023-02-13T03:36:32;97277.97;;;-1.46;100.00
4617;BME280;2321;42.704;23.384;2023-02-13T03:39:23;97276.97;;;-1.43;100.00
4617;BME280;2321;42.704;23.384;2023-02-13T03:41:56;97268.28;;;-1.44;100.00
4617;BME280;2321;42.704;23.384;2023-02-13T03:44:27;97273.47;;;-1.42;100.00
4617;BME280;2321;42.704;23.384;2023-02-13T03:46:59;97282.78;;;-1.36;100.00
4617;BME280;2321;42.704;23.384;2023-02-13T03:49:30;97285.16;;;-1.32;100.00
4617;BME280;2321;42.704;23.384;2023-02-13T03:52:22;97273.75;;;-1.29;100.00
4617;BME280;2321;42.704;23.384;2023-02-13T03:54:55;97280.66;;;-1.28;100.00
4617;BME280;2321;42.704;23.384;2023-02-13T03:57:43;97275.38;;;-1.26;100.00
4617;BME280;2321;42.704;23.384;2023-02-13T04:00:33;97280.66;;;-1.28;100.00
4617;BME280;2321;42.704;23.384;2023-02-13T04:03:07;97274.38;;;-1.43;100.00
4617;BME280;2321;42.704;23.384;2023-02-13T04:05:40;97277.13;;;-1.46;100.00
4617;BME280;2321;42.704;23.384;2023-02-13T04:08:09;97275.59;;;-1.50;100.00
4617;BME280;2321;42.704;23.384;2023-02-13T04:10:41;97274.00;;;-1.55;100.00
4617;BME280;2321;42.704;23.384;2023-02-13T04:13:14;97279.97;;;-1.51;100.00
4617;BME280;2321;42.704;23.384;2023-02-13T04:15:47;97273.31;;;-1.58;100.00
4617;BME280;2321;42.704;23.384;2023-02-13T04:18:18;97278.34;;;-1.54;100.00
4617;BME280;2321;42.704;23.384;2023-02-13T04:20:46;97284.09;;;-1.66;100.00
4617;BME280;2321;42.704;23.384;2023-02-13T04:23:14;97295.19;;;-1.61;100.00
4617;BME280;2321;42.704;23.384;2023-02-13T04:25:44;97290.19;;;-1.66;100.00
4617;BME280;2321;42.704;23.384;2023-02-13T04:28:12;97286.00;;;-1.70;100.00
4617;BME280;2321;42.704;23.384;2023-02-13T04:30:39;97293.75;;;-1.68;100.00
4617;BME280;2321;42.704;23.384;2023-02-13T04:33:06;97281.44;;;-1.86;100.00
4617;BME280;2321;42.704;23.384;2023-02-13T04:35:33;97286.59;;;-1.84;100.00
4617;BME280;2321;42.704;23.384;2023-02-13T04:38:00;97285.56;;;-1.80;100.00
4617;BME280;2321;42.704;23.384;2023-02-13T04:40:27;97255.47;;;-1.89;100.00
4617;BME280;2321;42.704;23.384;2023-02-13T04:42:56;97275.38;;;-1.86;100.00
4617;BME280;2321;42.704;23.384;2023-02-13T04:45:23;97286.81;;;-1.89;100.00
4617;BME280;2321;42.704;23.384;2023-02-13T04:47:50;97285.06;;;-1.88;100.00
4617;BME280;2321;42.704;23.384;2023-02-13T04:50:17;97287.56;;;-1.87;100.00
4617;BME280;2321;42.704;23.384;2023-02-13T04:52:45;97291.19;;;-1.89;100.00
4617;BME280;2321;42.704;23.384;2023-02-13T04:55:12;97298.03;;;-1.87;100.00
4617;BME280;2321;42.704;23.384;2023-02-13T04:57:39;97298.47;;;-1.77;100.00
4617;BME280;2321;42.704;23.384;2023-02-13T05:00:09;97299.66;;;-1.84;100.00
4617;BME280;2321;42.704;23.384;2023-02-13T05:02:36;97298.69;;;-1.81;100.00
4617;BME280;2321;42.704;23.384;2023-02-13T05:05:04;97301.59;;;-1.68;100.00
4617;BME280;2321;42.704;23.384;2023-02-13T05:07:31;97311.09;;;-1.66;100.00
4617;BME280;2321;42.704;23.384;2023-02-13T05:09:57;97302.06;;;-1.79;100.00
4617;BME280;2321;42.704;23.384;2023-02-13T05:12:24;97303.56;;;-1.73;100.00
4617;BME280;2321;42.704;23.384;2023-02-13T05:14:51;97310.56;;;-1.74;100.00
4617;BME280;2321;42.704;23.384;2023-02-13T05:17:20;97312.97;;;-1.69;100.00
4617;BME280;2321;42.704;23.384;2023-02-13T05:19:46;97317.34;;;-1.70;100.00
4617;BME280;2321;42.704;23.384;2023-02-13T05:22:13;97314.66;;;-1.68;100.00
4617;BME280;2321;42.704;23.384;2023-02-13T05:24:57;97323.16;;;-1.63;100.00
4617;BME280;2321;42.704;23.384;2023-02-13T05:27:24;97314.34;;;-1.60;100.00
4617;BME280;2321;42.704;23.384;2023-02-13T05:29:51;97315.81;;;-1.55;100.00
4617;BME280;2321;42.704;23.384;2023-02-13T05:32:20;97315.41;;;-1.45;100.00
4617;BME280;2321;42.704;23.384;2023-02-13T05:34:46;97321.69;;;-1.49;100.00
4617;BME280;2321;42.704;23.384;2023-02-13T05:37:13;97311.63;;;-1.59;100.00
4617;BME280;2321;42.704;23.384;2023-02-13T05:39:40;97327.31;;;-1.59;100.00
4617;BME280;2321;42.704;23.384;2023-02-13T05:42:08;97328.56;;;-1.68;100.00
4617;BME280;2321;42.704;23.384;2023-02-13T05:44:35;97330.31;;;-1.68;100.00
4617;BME280;2321;42.704;23.384;2023-02-13T05:47:01;97328.78;;;-1.72;100.00
4617;BME280;2321;42.704;23.384;2023-02-13T05:49:30;97324.31;;;-1.70;100.00
4617;BME280;2321;42.704;23.384;2023-02-13T05:51:57;97332.53;;;-1.59;100.00
4617;BME280;2321;42.704;23.384;2023-02-13T05:54:24;97337.72;;;-1.57;100.00
4617;BME280;2321;42.704;23.384;2023-02-13T05:56:50;97331.94;;;-1.45;100.00
4617;BME280;2321;42.704;23.384;2023-02-13T05:59:17;97331.16;;;-1.27;100.00
4617;BME280;2321;42.704;23.384;2023-02-13T06:01:44;97337.25;;;-1.27;100.00
4617;BME280;2321;42.704;23.384;2023-02-13T06:04:11;97328.56;;;-1.27;100.00
4617;BME280;2321;42.704;23.384;2023-02-13T06:06:40;97331.94;;;-1.25;100.00
4617;BME280;2321;42.704;23.384;2023-02-13T06:09:06;97339.88;;;-1.27;100.00
4617;BME280;2321;42.704;23.384;2023-02-13T06:11:33;97343.69;;;-1.15;100.00
4617;BME280;2321;42.704;23.384;2023-02-13T06:14:00;97274.06;;;-1.56;100.00
4617;BME280;2321;42.704;23.384;2023-02-13T06:16:27;97344.97;;;-1.24;100.00
4617;BME280;2321;42.704;23.384;2023-02-13T06:18:55;97350.47;;;-1.11;100.00
4617;BME280;2321;42.704;23.384;2023-02-13T06:21:22;97349.69;;;-1.13;100.00
4617;BME280;2321;42.704;23.384;2023-02-13T06:23:51;97351.44;;;-0.94;100.00
4617;BME280;2321;42.704;23.384;2023-02-13T06:26:18;97353.78;;;-0.88;100.00
4617;BME280;2321;42.704;23.384;2023-02-13T06:28:45;97348.75;;;-0.73;100.00
4617;BME280;2321;42.704;23.384;2023-02-13T06:31:11;97356.53;;;-0.71;100.00
4617;BME280;2321;42.704;23.384;2023-02-13T06:33:38;97356.09;;;-0.62;100.00
4617;BME280;2321;42.704;23.384;2023-02-13T06:36:06;97350.63;;;-0.57;100.00
4617;BME280;2321;42.704;23.384;2023-02-13T06:38:33;97327.91;;;-0.74;100.00
4617;BME280;2321;42.704;23.384;2023-02-13T06:41:01;97350.81;;;-0.42;100.00
4617;BME280;2321;42.704;23.384;2023-02-13T06:43:28;97362.38;;;-0.47;100.00
4617;BME280;2321;42.704;23.384;2023-02-13T06:45:56;97363.84;;;-0.41;100.00
4617;BME280;2321;42.704;23.384;2023-02-13T06:48:22;97359.38;;;-0.39;100.00
4617;BME280;2321;42.704;23.384;2023-02-13T06:50:49;97361.94;;;-0.37;100.00
4617;BME280;2321;42.704;23.384;2023-02-13T06:53:17;97357.94;;;-0.27;100.00
4617;BME280;2321;42.704;23.384;2023-02-13T06:55:49;97357.63;;;-0.20;100.00
4617;BME280;2321;42.704;23.384;2023-02-13T06:58:17;97354.56;;;-0.11;100.00
4617;BME280;2321;42.704;23.384;2023-02-13T07:00:44;97355.94;;;-0.04;100.00
4617;BME280;2321;42.704;23.384;2023-02-13T07:03:11;97355.94;;;-0.04;100.00
4617;BME280;2321;42.704;23.384;2023-02-13T07:05:39;97352.63;;;-0.07;100.00
4617;BME280;2321;42.704;23.384;2023-02-13T07:08:06;97348.47;;;-0.12;100.00
4617;BME280;2321;42.704;23.384;2023-02-13T07:10:36;97355.16;;;-0.24;100.00
4617;BME280;2321;42.704;23.384;2023-02-13T07:13:03;97344.84;;;-0.27;100.00
4617;BME280;2321;42.704;23.384;2023-02-13T07:15:32;97354.44;;;-0.27;100.00
4617;BME280;2321;42.704;23.384;2023-02-13T07:17:59;97365.41;;;-0.19;100.00
4617;BME280;2321;42.704;23.384;2023-02-13T07:20:27;97363.16;;;-0.09;100.00
4617;BME280;2321;42.704;23.384;2023-02-13T07:22:57;97357.94;;;-0.09;100.00
4617;BME280;2321;42.704;23.384;2023-02-13T07:25:24;97362.72;;;0.01;100.00
4617;BME280;2321;42.704;23.384;2023-02-13T07:27:51;97365.81;;;0.09;100.00
4617;BME280;2321;42.704;23.384;2023-02-13T07:30:18;97366.78;;;0.06;100.00
4617;BME280;2321;42.704;23.384;2023-02-13T07:32:46;97365.97;;;0.24;100.00
4617;BME280;2321;42.704;23.384;2023-02-13T07:35:14;97368.59;;;0.24;100.00
4617;BME280;2321;42.704;23.384;2023-02-13T07:37:41;97362.81;;;0.17;100.00
4617;BME280;2321;42.704;23.384;2023-02-13T07:40:09;97364.66;;;0.15;100.00
4617;BME280;2321;42.704;23.384;2023-02-13T07:42:36;97364.50;;;0.18;100.00
4617;BME280;2321;42.704;23.384;2023-02-13T07:45:03;97365.00;;;0.25;100.00
4617;BME280;2321;42.704;23.384;2023-02-13T07:47:32;97341.31;;;0.10;100.00
4617;BME280;2321;42.704;23.384;2023-02-13T07:50:01;97363.25;;;0.25;100.00
4617;BME280;2321;42.704;23.384;2023-02-13T07:52:30;97359.16;;;0.37;100.00
4617;BME280;2321;42.704;23.384;2023-02-13T07:54:57;97357.75;;;0.48;100.00
4617;BME280;2321;42.704;23.384;2023-02-13T07:57:24;97363.13;;;0.62;100.00
4617;BME280;2321;42.704;23.384;2023-02-13T07:59:51;97375.31;;;0.63;100.00
4617;BME280;2321;42.704;23.384;2023-02-13T08:02:18;97367.19;;;0.68;100.00
4617;BME280;2321;42.704;23.384;2023-02-13T08:04:45;97371.41;;;0.71;100.00
4617;BME280;2321;42.704;23.384;2023-02-13T08:07:14;97366.31;;;0.85;100.00
4617;BME280;2321;42.704;23.384;2023-02-13T08:09:43;97364.44;;;0.88;100.00
4617;BME280;2321;42.704;23.384;2023-02-13T08:12:27;97363.84;;;0.82;100.00
4617;BME280;2321;42.704;23.384;2023-02-13T08:14:54;97369.09;;;0.82;100.00
4617;BME280;2321;42.704;23.384;2023-02-13T08:17:21;97359.38;;;0.84;100.00
4617;BME280;2321;42.704;23.384;2023-02-13T08:19:48;97353.47;;;0.97;100.00
4617;BME280;2321;42.704;23.384;2023-02-13T08:22:17;97363.28;;;1.10;100.00
4617;BME280;2321;42.704;23.384;2023-02-13T08:24:43;97350.00;;;1.13;100.00
4617;BME280;2321;42.704;23.384;2023-02-13T08:27:11;97361.44;;;1.12;100.00
4617;BME280;2321;42.704;23.384;2023-02-13T08:29:38;97359.38;;;1.17;100.00
4617;BME280;2321;42.704;23.384;2023-02-13T08:32:05;97353.22;;;1.18;100.00
4617;BME280;2321;42.704;23.384;2023-02-13T08:34:32;97363.47;;;1.39;100.00
4617;BME280;2321;42.704;23.384;2023-02-13T08:37:03;97357.19;;;1.41;100.00
4617;BME280;2321;42.704;23.384;2023-02-13T08:39:31;97354.22;;;1.48;100.00
4617;BME280;2321;42.704;23.384;2023-02-13T08:41:58;97362.59;;;1.55;100.00
4617;BME280;2321;42.704;23.384;2023-02-13T08:44:25;97361.06;;;1.67;100.00
4617;BME280;2321;42.704;23.384;2023-02-13T08:46:52;97361.00;;;1.68;100.00
4617;BME280;2321;42.704;23.384;2023-02-13T08:49:19;97359.47;;;1.64;100.00
4617;BME280;2321;42.704;23.384;2023-02-13T08:51:46;97359.13;;;1.70;100.00
4617;BME280;2321;42.704;23.384;2023-02-13T08:54:13;97353.00;;;1.70;100.00
4617;BME280;2321;42.704;23.384;2023-02-13T08:56:41;97358.25;;;1.70;100.00
4617;BME280;2321;42.704;23.384;2023-02-13T08:59:08;97366.53;;;1.78;100.00
4617;BME280;2321;42.704;23.384;2023-02-13T09:01:35;97359.63;;;1.77;100.00
4617;BME280;2321;42.704;23.384;2023-02-13T09:04:02;97355.88;;;1.81;100.00
4617;BME280;2321;42.704;23.384;2023-02-13T09:06:29;97359.91;;;1.87;100.00
4617;BME280;2321;42.704;23.384;2023-02-13T09:08:56;97347.09;;;1.97;100.00
4617;BME280;2321;42.704;23.384;2023-02-13T09:11:23;97352.00;;;2.03;100.00
4617;BME280;2321;42.704;23.384;2023-02-13T09:13:53;97347.91;;;2.14;100.00
4617;BME280;2321;42.704;23.384;2023-02-13T09:16:20;97349.88;;;2.25;100.00
4617;BME280;2321;42.704;23.384;2023-02-13T09:18:48;97348.97;;;2.26;100.00
4617;BME280;2321;42.704;23.384;2023-02-13T09:21:16;97348.78;;;2.29;100.00
4617;BME280;2321;42.704;23.384;2023-02-13T09:23:45;97354.22;;;2.26;100.00
4617;BME280;2321;42.704;23.384;2023-02-13T09:26:14;97351.31;;;2.31;100.00
4617;BME280;2321;42.704;23.384;2023-02-13T09:28:42;97344.38;;;2.44;100.00
4617;BME280;2321;42.704;23.384;2023-02-13T09:31:11;97347.88;;;2.45;100.00
4617;BME280;2321;42.704;23.384;2023-02-13T09:33:41;97338.38;;;2.42;100.00
4617;BME280;2321;42.704;23.384;2023-02-13T09:36:10;97342.31;;;2.35;100.00
4617;BME280;2321;42.704;23.384;2023-02-13T09:38:38;97335.16;;;2.37;100.00
4617;BME280;2321;42.704;23.384;2023-02-13T09:41:10;97332.47;;;2.53;100.00
4617;BME280;2321;42.704;23.384;2023-02-13T09:43:42;97332.94;;;2.60;100.00
4617;BME280;2321;42.704;23.384;2023-02-13T09:46:15;97331.72;;;2.66;100.00
4617;BME280;2321;42.704;23.384;2023-02-13T09:48:48;97324.38;;;2.71;100.00
4617;BME280;2321;42.704;23.384;2023-02-13T09:51:18;97319.13;;;2.71;100.00
4617;BME280;2321;42.704;23.384;2023-02-13T09:53:51;97305.41;;;2.66;100.00
4617;BME280;2321;42.704;23.384;2023-02-13T09:56:22;97323.06;;;2.78;100.00
4617;BME280;2321;42.704;23.384;2023-02-13T09:58:58;97315.53;;;2.87;100.00
4617;BME280;2321;42.704;23.384;2023-02-13T10:01:30;97306.69;;;3.02;100.00
4617;BME280;2321;42.704;23.384;2023-02-13T10:04:19;97308.03;;;3.23;100.00
4617;BME280;2321;42.704;23.384;2023-02-13T10:06:57;97309.00;;;3.50;100.00
4617;BME280;2321;42.704;23.384;2023-02-13T10:09:32;97299.41;;;3.48;100.00
4617;BME280;2321;42.704;23.384;2023-02-13T10:12:24;97301.44;;;3.58;100.00
4617;BME280;2321;42.704;23.384;2023-02-13T10:15:06;97282.88;;;3.59;100.00
4617;BME280;2321;42.704;23.384;2023-02-13T10:17:41;97293.34;;;3.74;100.00
4617;BME280;2321;42.704;23.384;2023-02-13T10:20:21;97285.56;;;3.73;100.00
4617;BME280;2321;42.704;23.384;2023-02-13T10:22:55;97285.25;;;3.77;100.00
4617;BME280;2321;42.704;23.384;2023-02-13T10:25:27;97279.03;;;3.78;100.00
4617;BME280;2321;42.704;23.384;2023-02-13T10:28:03;97275.34;;;3.81;100.00
4617;BME280;2321;42.704;23.384;2023-02-13T10:30:33;97270.44;;;3.89;100.00
4617;BME280;2321;42.704;23.384;2023-02-13T10:33:06;97267.44;;;3.81;100.00
4617;BME280;2321;42.704;23.384;2023-02-13T10:35:53;97268.50;;;3.78;100.00
4617;BME280;2321;42.704;23.384;2023-02-13T10:38:28;97280.72;;;3.92;100.00
4617;BME280;2321;42.704;23.384;2023-02-13T10:41:18;97258.00;;;4.05;100.00
4617;BME280;2321;42.704;23.384;2023-02-13T10:43:59;97254.28;;;4.20;100.00
4617;BME280;2321;42.704;23.384;2023-02-13T10:46:34;97245.22;;;4.38;100.00
4617;BME280;2321;42.704;23.384;2023-02-13T10:49:17;97248.69;;;4.51;100.00
4617;BME280;2321;42.704;23.384;2023-02-13T10:51:51;97237.69;;;4.71;100.00
4617;BME280;2321;42.704;23.384;2023-02-13T10:54:31;97238.56;;;4.96;100.00
4617;BME280;2321;42.704;23.384;2023-02-13T10:57:06;97234.50;;;5.03;100.00
4617;BME280;2321;42.704;23.384;2023-02-13T10:59:53;97231.31;;;5.11;100.00
4617;BME280;2321;42.704;23.384;2023-02-13T11:02:27;97229.69;;;5.21;100.00
4617;BME280;2321;42.704;23.384;2023-02-13T11:05:00;97218.44;;;5.31;99.65
4617;BME280;2321;42.704;23.384;2023-02-13T11:07:31;97227.13;;;5.33;95.11
4617;BME280;2321;42.704;23.384;2023-02-13T11:10:12;97212.25;;;5.19;94.87
4617;BME280;2321;42.704;23.384;2023-02-13T11:12:39;97217.44;;;5.20;93.71
4617;BME280;2321;42.704;23.384;2023-02-13T11:15:20;97204.75;;;5.26;94.97
4617;BME280;2321;42.704;23.384;2023-02-13T11:17:49;97201.59;;;5.45;95.08
4617;BME280;2321;42.704;23.384;2023-02-13T11:20:32;97195.47;;;5.56;90.84
4617;BME280;2321;42.704;23.384;2023-02-13T11:23:17;97189.28;;;5.69;89.48
4617;BME280;2321;42.704;23.384;2023-02-13T11:25:55;97190.50;;;5.87;87.51
4617;BME280;2321;42.704;23.384;2023-02-13T11:28:27;97182.97;;;5.94;84.87
4617;BME280;2321;42.704;23.384;2023-02-13T11:31:13;97170.06;;;6.01;84.14
4617;BME280;2321;42.704;23.384;2023-02-13T11:33:45;97156.28;;;5.97;82.43
4617;BME280;2321;42.704;23.384;2023-02-13T11:36:19;97163.41;;;6.08;83.04
4617;BME280;2321;42.704;23.384;2023-02-13T11:38:56;97153.56;;;6.22;80.82
4617;BME280;2321;42.704;23.384;2023-02-13T11:41:24;97151.72;;;6.11;79.27
4617;BME280;2321;42.704;23.384;2023-02-13T11:43:55;97152.69;;;6.21;82.03
4617;BME280;2321;42.704;23.384;2023-02-13T11:46:31;97135.13;;;6.32;81.02
4617;BME280;2321;42.704;23.384;2023-02-13T11:49:15;97133.06;;;6.47;77.39
4617;BME280;2321;42.704;23.384;2023-02-13T11:51:49;97125.09;;;6.70;74.66
4617;BME280;2321;42.704;23.384;2023-02-13T11:54:32;97130.22;;;6.83;67.95
4617;BME280;2321;42.704;23.384;2023-02-13T11:57:18;97112.84;;;6.91;64.51
4617;BME280;2321;42.704;23.384;2023-02-13T11:59:46;97100.84;;;6.86;63.79
4617;BME280;2321;42.704;23.384;2023-02-13T12:02:17;97117.78;;;6.95;62.07
4617;BME280;2321;42.704;23.384;2023-02-13T12:04:46;97109.78;;;7.07;62.68
4617;BME280;2321;42.704;23.384;2023-02-13T12:07:19;97109.63;;;7.20;60.44
4617;BME280;2321;42.704;23.384;2023-02-13T12:09:50;97107.75;;;7.32;59.48
4617;BME280;2321;42.704;23.384;2023-02-13T12:12:22;97108.59;;;7.33;58.49
4617;BME280;2321;42.704;23.384;2023-02-13T12:14:52;97102.44;;;7.32;57.78
4617;BME280;2321;42.704;23.384;2023-02-13T12:17:21;97106.63;;;7.35;57.92
4617;BME280;2321;42.704;23.384;2023-02-13T12:19:50;97095.63;;;7.39;57.50
4617;BME280;2321;42.704;23.384;2023-02-13T12:22:29;97102.81;;;7.49;57.25
4617;BME280;2321;42.704;23.384;2023-02-13T12:25:13;97092.78;;;7.52;56.62
4617;BME280;2321;42.704;23.384;2023-02-13T12:27:54;97093.63;;;7.53;55.18
4617;BME280;2321;42.704;23.384;2023-02-13T12:31:08;97078.34;;;7.67;54.97
4617;BME280;2321;42.704;23.384;2023-02-13T12:34:08;97081.47;;;7.72;55.27
4617;BME280;2321;42.704;23.384;2023-02-13T12:36:48;97091.28;;;7.81;53.29
4617;BME280;2321;42.704;23.384;2023-02-13T12:39:25;97088.44;;;7.73;52.16
4617;BME280;2321;42.704;23.384;2023-02-13T12:42:20;97076.59;;;7.77;51.83
4617;BME280;2321;42.704;23.384;2023-02-13T12:44:59;97074.09;;;7.85;50.61
4617;BME280;2321;42.704;23.384;2023-02-13T12:47:30;97067.28;;;7.83;50.10
4617;BME280;2321;42.704;23.384;2023-02-13T12:50:18;97065.50;;;7.93;49.57
4617;BME280;2321;42.704;23.384;2023-02-13T12:52:59;97052.13;;;8.05;48.77
4617;BME280;2321;42.704;23.384;2023-02-13T12:55:47;97060.09;;;8.05;48.13
4617;BME280;2321;42.704;23.384;2023-02-13T12:58:33;97054.63;;;7.97;48.65
4617;BME280;2321;42.704;23.384;2023-02-13T13:01:12;97049.34;;;8.06;48.51
4617;BME280;2321;42.704;23.384;2023-02-13T13:03:56;97053.41;;;8.11;48.49
4617;BME280;2321;42.704;23.384;2023-02-13T13:06:36;97045.97;;;8.04;48.02
4617;BME280;2321;42.704;23.384;2023-02-13T13:09:35;97053.56;;;8.09;47.84
4617;BME280;2321;42.704;23.384;2023-02-13T13:12:33;97043.28;;;7.94;48.14
4617;BME280;2321;42.704;23.384;2023-02-13T13:15:08;97040.63;;;7.84;47.49
4617;BME280;2321;42.704;23.384;2023-02-13T13:18:00;97037.09;;;7.74;48.33
4617;BME280;2321;42.704;23.384;2023-02-13T13:20:47;97032.91;;;7.71;48.70
4617;BME280;2321;42.704;23.384;2023-02-13T13:23:20;97033.06;;;7.80;48.85
4617;BME280;2321;42.704;23.384;2023-02-13T13:25:57;97030.28;;;7.81;48.57
4617;BME280;2321;42.704;23.384;2023-02-13T13:28:32;97033.31;;;7.77;49.16
4617;BME280;2321;42.704;23.384;2023-02-13T13:31:01;97027.31;;;7.74;49.43
4617;BME280;2321;42.704;23.384;2023-02-13T13:33:29;97013.91;;;7.76;48.87
4617;BME280;2321;42.704;23.384;2023-02-13T13:36:01;97021.59;;;7.79;48.44
4617;BME280;2321;42.704;23.384;2023-02-13T13:38:38;97013.66;;;7.79;49.43